Time;durP1;ratioP1;P1;durP2;ratioP2;P2;SDS_P1;SDS_P2;PMS_P1;PMS_P2;Temp;Humidity;BMP_temperature;BMP_pressure;BME280_temperature;BME280_humidity;BME280_pressure;Samples;Min_cycle;Max_cycle;Signal;HPM_P1;HPM_P2
2023/11/08 00:00:52;;;;;;;9.47;6.90;;;;;;;;;;5051006;28;20775;-44
2023/11/08 00:03:18;;;;;;;9.50;6.87;;;;;;;;;;5049719;28;20409;-44
2023/11/08 00:05:44;;;;;;;10.33;7.47;;;;;;;;;;5050840;28;20429;-44
2023/11/08 00:08:10;;;;;;;7.90;6.13;;;;;;;;;;5051058;28;20591;-44
2023/11/08 00:10:36;;;;;;;8.53;7.57;;;;;;;;;;5051127;28;20896;-44
2023/11/08 00:13:02;;;;;;;10.90;9.80;;;;;;;;;;5054398;28;20455;-44
2023/11/08 00:15:28;;;;;;;10.17;9.10;;;;;;;;;;5054377;28;20436;-45
2023/11/08 00:17:54;;;;;;;8.47;7.57;;;;;;;;;;5052153;28;20504;-45
2023/11/08 00:20:20;;;;;;;8.87;7.63;;;;;;;;;;5051765;28;20884;-44
2023/11/08 00:22:46;;;;;;;9.83;8.80;;;;;;;;;;5054505;28;20491;-44
2023/11/08 00:25:12;;;;;;;10.87;9.10;;;;;;;;;;5054147;28;20425;-43
2023/11/08 00:27:39;;;;;;;8.73;6.60;;;;;;;;;;5054347;28;20409;-44
2023/11/08 00:30:05;;;;;;;8.60;6.03;;;;;;;;;;5054363;28;20421;-44
2023/11/08 00:32:32;;;;;;;8.87;6.57;;;;;;;;;;5053364;28;20413;-44
2023/11/08 00:34:58;;;;;;;8.33;6.53;;;;;;;;;;5054002;28;21144;-44
2023/11/08 00:37:24;;;;;;;8.57;6.90;;;;;;;;;;5049924;28;20417;-44
2023/11/08 00:39:50;;;;;;;9.23;7.87;;;;;;;;;;5054207;28;20421;-45
2023/11/08 00:42:16;;;;;;;9.53;7.80;;;;;;;;;;5054225;28;20420;-44
2023/11/08 00:44:42;;;;;;;8.20;6.47;;;;;;;;;;5054131;28;20426;-44
2023/11/08 00:47:08;;;;;;;8.60;6.73;;;;;;;;;;5053394;28;20406;-44
2023/11/08 00:49:35;;;;;;;9.13;6.83;;;;;;;;;;5054171;28;20514;-44
2023/11/08 00:52:01;;;;;;;9.07;6.40;;;;;;;;;;5054331;28;20520;-44
2023/11/08 00:54:33;;;;;;;8.57;6.30;;;;;;;;;;5053736;28;20980;-45
2023/11/08 00:56:59;;;;;;;9.27;6.60;;;;;;;;;;5053564;28;20524;-44
2023/11/08 00:59:25;;;;;;;9.10;6.33;;;;;;;;;;5052941;28;20849;-44
2023/11/08 01:01:52;;;;;;;9.17;7.10;;;;;;;;;;5051161;28;20505;-44
2023/11/08 01:04:18;;;;;;;8.33;5.67;;;;;;;;;;5053568;28;20432;-45
2023/11/08 01:06:44;;;;;;;8.43;5.80;;;;;;;;;;5049577;28;20409;-44
2023/11/08 01:09:11;;;;;;;8.13;5.63;;;;;;;;;;5053453;28;20476;-44
2023/11/08 01:11:37;;;;;;;8.13;5.37;;;;;;;;;;5053627;28;20931;-43
2023/11/08 01:14:04;;;;;;;8.97;5.97;;;;;;;;;;5052307;28;20413;-44
2023/11/08 01:16:30;;;;;;;7.83;5.83;;;;;;;;;;5053413;28;20414;-44
2023/11/08 01:18:56;;;;;;;9.57;6.97;;;;;;;;;;5053534;28;20418;-44
2023/11/08 01:21:23;;;;;;;8.53;6.17;;;;;;;;;;5053508;28;20405;-44
2023/11/08 01:23:49;;;;;;;8.43;6.63;;;;;;;;;;5052508;28;20449;-45
2023/11/08 01:26:15;;;;;;;8.10;6.07;;;;;;;;;;5053279;28;20927;-44
2023/11/08 01:28:41;;;;;;;8.50;6.40;;;;;;;;;;5053499;28;20461;-44
2023/11/08 01:31:07;;;;;;;9.00;6.60;;;;;;;;;;5065638;28;20892;-44
2023/11/08 01:33:33;;;;;;;9.27;6.07;;;;;;;;;;5064458;28;20413;-44
2023/11/08 01:36:00;;;;;;;8.53;5.50;;;;;;;;;;5057578;28;20473;-44
2023/11/08 01:38:26;;;;;;;8.20;5.17;;;;;;;;;;5072662;28;20400;-45
2023/11/08 01:40:52;;;;;;;8.00;5.17;;;;;;;;;;5053354;28;20500;-46
2023/11/08 01:43:31;;;;;;;9.93;6.37;;;;;;;;;;5053461;28;20892;-44
2023/11/08 01:46:08;;;;;;;8.50;5.33;;;;;;;;;;5066980;28;20434;-45
2023/11/08 01:48:34;;;;;;;8.63;6.10;;;;;;;;;;5061611;28;20449;-44
2023/11/08 01:51:00;;;;;;;9.00;5.80;;;;;;;;;;5052329;28;20445;-44
2023/11/08 01:53:28;;;;;;;10.47;6.80;;;;;;;;;;5049582;28;20414;-45
2023/11/08 01:55:54;;;;;;;8.03;5.37;;;;;;;;;;5032934;28;20979;-44
2023/11/08 01:58:20;;;;;;;9.13;5.80;;;;;;;;;;5052328;28;20908;-45
2023/11/08 02:00:48;;;;;;;12.90;7.87;;;;;;;;;;5048111;28;20417;-44
2023/11/08 02:03:17;;;;;;;9.23;5.90;;;;;;;;;;5051727;28;20409;-44
2023/11/08 02:05:43;;;;;;;9.87;6.33;;;;;;;;;;5044271;28;20448;-46
2023/11/08 02:08:09;;;;;;;7.73;5.37;;;;;;;;;;5035760;28;20483;-44
2023/11/08 02:10:36;;;;;;;9.23;5.93;;;;;;;;;;5052334;28;20409;-44
2023/11/08 02:13:03;;;;;;;9.00;6.27;;;;;;;;;;5051708;28;20819;-44
2023/11/08 02:15:38;;;;;;;7.37;5.03;;;;;;;;;;5036052;28;20472;-44
2023/11/08 02:18:05;;;;;;;9.13;6.03;;;;;;;;;;5044852;28;20412;-45
2023/11/08 02:20:31;;;;;;;8.73;5.80;;;;;;;;;;5043049;28;20449;-45
2023/11/08 02:22:57;;;;;;;7.63;5.20;;;;;;;;;;5036745;28;20469;-44
2023/11/08 02:25:24;;;;;;;9.30;5.87;;;;;;;;;;5051083;28;20424;-45
2023/11/08 02:27:50;;;;;;;9.23;6.17;;;;;;;;;;5031724;28;20453;-44
2023/11/08 02:30:16;;;;;;;8.73;5.77;;;;;;;;;;5048532;28;20781;-44
2023/11/08 02:32:42;;;;;;;8.50;5.50;;;;;;;;;;5038951;28;20497;-45
2023/11/08 02:35:08;;;;;;;8.13;5.40;;;;;;;;;;5039152;28;20475;-44
2023/11/08 02:37:35;;;;;;;8.83;5.70;;;;;;;;;;5047204;28;20403;-45
2023/11/08 02:40:01;;;;;;;8.77;5.77;;;;;;;;;;5031910;28;20417;-45
2023/11/08 02:42:27;;;;;;;8.17;5.43;;;;;;;;;;5052214;28;20425;-44
2023/11/08 02:44:54;;;;;;;8.03;5.67;;;;;;;;;;5034859;28;20433;-44
2023/11/08 02:47:20;;;;;;;9.37;6.33;;;;;;;;;;5043674;28;20417;-44
2023/11/08 02:49:47;;;;;;;10.57;6.97;;;;;;;;;;5043301;28;20461;-44
2023/11/08 02:52:13;;;;;;;8.53;5.53;;;;;;;;;;5035877;28;20492;-44
2023/11/08 02:54:39;;;;;;;8.50;5.77;;;;;;;;;;5050912;28;20459;-45
2023/11/08 02:57:05;;;;;;;8.67;5.47;;;;;;;;;;5031373;28;20524;-45
2023/11/08 02:59:31;;;;;;;8.93;5.63;;;;;;;;;;5047358;28;20427;-44
2023/11/08 03:01:57;;;;;;;8.70;5.70;;;;;;;;;;5051012;28;20417;-44
2023/11/08 03:04:28;;;;;;;7.87;5.13;;;;;;;;;;5043400;28;20836;-44
2023/11/08 03:06:54;;;;;;;7.93;5.00;;;;;;;;;;5035514;28;20499;-44
2023/11/08 03:09:20;;;;;;;8.53;5.13;;;;;;;;;;5050966;28;20602;-44
2023/11/08 03:11:46;;;;;;;10.10;6.00;;;;;;;;;;5031346;28;20409;-44
2023/11/08 03:14:12;;;;;;;8.13;5.37;;;;;;;;;;5047104;28;20429;-45
2023/11/08 03:16:38;;;;;;;10.93;7.17;;;;;;;;;;5038865;28;20455;-44
2023/11/08 03:19:06;;;;;;;8.80;5.67;;;;;;;;;;5039057;28;20413;-44
2023/11/08 03:21:32;;;;;;;8.77;5.37;;;;;;;;;;5047113;28;20500;-44
2023/11/08 03:24:00;;;;;;;8.93;5.27;;;;;;;;;;5031207;28;20525;-44
2023/11/08 03:26:26;;;;;;;7.80;4.73;;;;;;;;;;5031248;28;20420;-45
2023/11/08 03:28:53;;;;;;;8.83;5.33;;;;;;;;;;5046970;28;20693;-44
2023/11/08 03:31:19;;;;;;;8.23;5.13;;;;;;;;;;5039104;28;20957;-44
2023/11/08 03:33:46;;;;;;;9.77;5.97;;;;;;;;;;5038589;28;20954;-44
2023/11/08 03:36:12;;;;;;;8.83;5.37;;;;;;;;;;5046987;28;20407;-45
2023/11/08 03:38:38;;;;;;;10.93;6.53;;;;;;;;;;5031136;28;20417;-44
2023/11/08 03:41:04;;;;;;;8.13;5.07;;;;;;;;;;5050776;28;20500;-44
2023/11/08 03:43:30;;;;;;;10.43;6.13;;;;;;;;;;5034792;28;20421;-44
2023/11/08 03:45:56;;;;;;;8.13;5.13;;;;;;;;;;5042378;28;20434;-44
2023/11/08 03:48:22;;;;;;;8.13;5.13;;;;;;;;;;5047137;28;20461;-44
2023/11/08 03:50:48;;;;;;;10.07;6.60;;;;;;;;;;5038192;28;20433;-45
2023/11/08 03:53:13;;;;;;;9.00;6.37;;;;;;;;;;5054772;28;20405;-44
2023/11/08 03:55:39;;;;;;;8.43;5.77;;;;;;;;;;5034946;28;20438;-45
2023/11/08 03:58:05;;;;;;;8.80;5.87;;;;;;;;;;5049713;28;20405;-44
2023/11/08 04:00:31;;;;;;;7.53;5.00;;;;;;;;;;5048455;28;20832;-43
2023/11/08 04:02:58;;;;;;;7.23;4.97;;;;;;;;;;5056752;28;20409;-44
2023/11/08 04:05:29;;;;;;;8.13;5.57;;;;;;;;;;5057351;28;20440;-44
2023/11/08 04:07:55;;;;;;;7.60;5.33;;;;;;;;;;5054161;28;20602;-44
2023/11/08 04:10:21;;;;;;;7.77;5.20;;;;;;;;;;5054670;28;20507;-44
2023/11/08 04:12:47;;;;;;;9.40;6.10;;;;;;;;;;5054236;28;20440;-44
2023/11/08 04:15:14;;;;;;;7.37;4.73;;;;;;;;;;5054546;28;20928;-45
2023/11/08 04:17:40;;;;;;;7.40;4.97;;;;;;;;;;5056181;28;20474;-44
2023/11/08 04:20:12;;;;;;;8.47;5.60;;;;;;;;;;5054333;28;20441;-44
2023/11/08 04:22:40;;;;;;;8.00;5.03;;;;;;;;;;5054216;28;20405;-44
2023/11/08 04:25:06;;;;;;;8.73;6.00;;;;;;;;;;5060765;28;20435;-44
2023/11/08 04:27:32;;;;;;;8.03;5.17;;;;;;;;;;5053988;28;20451;-44
2023/11/08 04:29:58;;;;;;;7.93;5.10;;;;;;;;;;5056222;28;20440;-44
2023/11/08 04:32:24;;;;;;;8.10;4.60;;;;;;;;;;5054262;28;20409;-44
2023/11/08 04:34:51;;;;;;;9.90;6.23;;;;;;;;;;5057274;28;21023;-44
2023/11/08 04:37:17;;;;;;;9.13;5.77;;;;;;;;;;5059245;28;20402;-44
2023/11/08 04:39:47;;;;;;;10.23;6.30;;;;;;;;;;5060728;28;20445;-45
2023/11/08 04:42:16;;;;;;;7.73;4.67;;;;;;;;;;5053509;28;20474;-44
2023/11/08 04:44:49;;;;;;;12.30;7.37;;;;;;;;;;5055596;28;20437;-44
2023/11/08 04:47:19;;;;;;;9.77;6.40;;;;;;;;;;5053769;28;20409;-44
2023/11/08 04:49:47;;;;;;;8.30;5.93;;;;;;;;;;5058529;28;20466;-45
2023/11/08 04:52:13;;;;;;;9.67;6.43;;;;;;;;;;5055749;28;20436;-44
2023/11/08 04:54:39;;;;;;;10.57;6.73;;;;;;;;;;5058340;28;20456;-44
2023/11/08 04:57:05;;;;;;;8.23;5.67;;;;;;;;;;5053954;28;20456;-44
2023/11/08 04:59:31;;;;;;;7.90;5.03;;;;;;;;;;5064239;28;20501;-44
2023/11/08 05:01:57;;;;;;;8.33;5.33;;;;;;;;;;5066179;28;20448;-45
2023/11/08 05:04:23;;;;;;;7.67;5.17;;;;;;;;;;5056417;28;20444;-44
2023/11/08 05:06:48;;;;;;;10.03;6.40;;;;;;;;;;5073428;28;20420;-44
2023/11/08 05:09:15;;;;;;;8.67;5.93;;;;;;;;;;5054254;28;20456;-44
2023/11/08 05:11:41;;;;;;;8.97;6.03;;;;;;;;;;5038581;28;20552;-45
2023/11/08 05:14:07;;;;;;;8.10;5.23;;;;;;;;;;5033688;28;20426;-45
2023/11/08 05:16:33;;;;;;;8.60;5.50;;;;;;;;;;5040084;28;20411;-45
2023/11/08 05:18:59;;;;;;;8.63;5.83;;;;;;;;;;5050604;28;20488;-45
2023/11/08 05:21:28;;;;;;;9.33;5.97;;;;;;;;;;5033326;28;20497;-44
2023/11/08 05:23:55;;;;;;;9.87;5.60;;;;;;;;;;5052092;28;20501;-44
2023/11/08 05:26:21;;;;;;;8.43;5.57;;;;;;;;;;5038075;28;20421;-44
2023/11/08 05:28:47;;;;;;;9.67;6.67;;;;;;;;;;5044151;28;20453;-45
2023/11/08 05:31:14;;;;;;;8.37;5.77;;;;;;;;;;5046268;28;20905;-45
2023/11/08 05:33:40;;;;;;;11.40;6.73;;;;;;;;;;5035581;28;20962;-44
2023/11/08 05:36:06;;;;;;;8.30;5.20;;;;;;;;;;5053451;28;20912;-45
2023/11/08 05:38:32;;;;;;;7.83;5.17;;;;;;;;;;5034121;28;20898;-45
2023/11/08 05:41:01;;;;;;;8.40;5.40;;;;;;;;;;5047562;28;20471;-44
2023/11/08 05:43:27;;;;;;;10.83;7.03;;;;;;;;;;5041781;28;20840;-44
2023/11/08 05:45:55;;;;;;;8.90;5.90;;;;;;;;;;5039841;28;21003;-45
2023/11/08 05:48:21;;;;;;;8.23;6.10;;;;;;;;;;5049642;28;20969;-44
2023/11/08 05:50:48;;;;;;;10.27;6.20;;;;;;;;;;5032874;28;20406;-45
2023/11/08 05:53:14;;;;;;;8.57;5.87;;;;;;;;;;5051589;28;20831;-45
2023/11/08 05:55:41;;;;;;;11.97;8.00;;;;;;;;;;5037255;28;21025;-45
2023/11/08 05:58:07;;;;;;;8.50;6.13;;;;;;;;;;5043596;28;20474;-45
2023/11/08 06:00:34;;;;;;;8.53;5.70;;;;;;;;;;5051991;28;20420;-44
2023/11/08 06:03:00;;;;;;;9.23;6.53;;;;;;;;;;5049409;28;20417;-44
2023/11/08 06:05:29;;;;;;;9.00;6.27;;;;;;;;;;5032338;28;20441;-44
2023/11/08 06:07:57;;;;;;;8.87;6.20;;;;;;;;;;5051383;28;20493;-45
2023/11/08 06:10:23;;;;;;;8.80;6.23;;;;;;;;;;5036980;28;20405;-45
2023/11/08 06:12:50;;;;;;;8.60;5.97;;;;;;;;;;5043280;28;20507;-44
2023/11/08 06:15:16;;;;;;;8.93;5.77;;;;;;;;;;5044656;28;20971;-44
2023/11/08 06:17:42;;;;;;;10.83;6.93;;;;;;;;;;5035015;28;20412;-44
2023/11/08 06:20:09;;;;;;;7.80;5.63;;;;;;;;;;5052426;28;20438;-44
2023/11/08 06:22:35;;;;;;;9.00;5.97;;;;;;;;;;5032971;28;20460;-44
2023/11/08 06:25:01;;;;;;;9.23;6.37;;;;;;;;;;5046783;28;20467;-44
2023/11/08 06:27:27;;;;;;;7.53;5.27;;;;;;;;;;5040972;28;20415;-45
2023/11/08 06:29:53;;;;;;;8.53;5.67;;;;;;;;;;5038633;28;20456;-44
2023/11/08 06:32:20;;;;;;;9.47;6.27;;;;;;;;;;5049076;28;20405;-44
2023/11/08 06:34:46;;;;;;;10.47;6.67;;;;;;;;;;5031582;28;20441;-44
2023/11/08 06:37:13;;;;;;;8.63;6.03;;;;;;;;;;5050492;28;20404;-44
2023/11/08 06:39:39;;;;;;;10.83;7.03;;;;;;;;;;5036792;28;20492;-45
2023/11/08 06:42:05;;;;;;;8.83;6.23;;;;;;;;;;5042389;28;20420;-44
2023/11/08 06:44:31;;;;;;;7.83;5.53;;;;;;;;;;5044644;28;20519;-44
2023/11/08 06:46:57;;;;;;;8.67;6.60;;;;;;;;;;5035538;28;20490;-44
2023/11/08 06:49:24;;;;;;;8.40;6.63;;;;;;;;;;5052013;28;20461;-43
2023/11/08 06:51:50;;;;;;;10.13;6.80;;;;;;;;;;5054231;28;20847;-44
2023/11/08 06:54:16;;;;;;;8.23;5.53;;;;;;;;;;5050998;28;20420;-44
2023/11/08 06:56:42;;;;;;;10.37;6.70;;;;;;;;;;5051671;28;20478;-44
2023/11/08 06:59:09;;;;;;;8.83;5.77;;;;;;;;;;5057655;28;20423;-44
2023/11/08 07:01:36;;;;;;;8.20;4.97;;;;;;;;;;5059094;28;20416;-44
2023/11/08 07:04:02;;;;;;;9.90;7.83;;;;;;;;;;5049215;28;20774;-44
2023/11/08 07:06:28;;;;;;;10.43;8.53;;;;;;;;;;5053799;28;20452;-45
2023/11/08 07:08:54;;;;;;;8.00;7.03;;;;;;;;;;5053271;28;20897;-44
2023/11/08 07:11:21;;;;;;;9.03;7.70;;;;;;;;;;5051623;28;20809;-44
2023/11/08 07:13:48;;;;;;;8.93;6.33;;;;;;;;;;5051578;28;20440;-44
2023/11/08 07:16:14;;;;;;;10.00;6.90;;;;;;;;;;5044625;28;20409;-44
2023/11/08 07:18:40;;;;;;;8.00;6.70;;;;;;;;;;5051573;28;20486;-44
2023/11/08 07:21:06;;;;;;;7.97;6.70;;;;;;;;;;5053142;28;20444;-44
2023/11/08 07:23:32;;;;;;;10.03;7.40;;;;;;;;;;5047446;28;20447;-44
2023/11/08 07:25:59;;;;;;;8.33;6.37;;;;;;;;;;5056795;28;20495;-44
2023/11/08 07:28:25;;;;;;;8.87;6.97;;;;;;;;;;5054856;28;20456;-44
2023/11/08 07:30:51;;;;;;;8.97;6.47;;;;;;;;;;5054277;28;20408;-44
2023/11/08 07:33:17;;;;;;;12.00;8.60;;;;;;;;;;5051301;28;20400;-44
2023/11/08 07:35:44;;;;;;;9.27;7.20;;;;;;;;;;5053348;28;20421;-44
2023/11/08 07:38:10;;;;;;;9.43;6.97;;;;;;;;;;5055071;28;20424;-45
2023/11/08 07:40:36;;;;;;;8.10;6.60;;;;;;;;;;5056798;28;20500;-43
2023/11/08 07:43:02;;;;;;;10.67;7.83;;;;;;;;;;5058222;28;20408;-44
2023/11/08 07:45:32;;;;;;;8.60;7.30;;;;;;;;;;5051272;28;20531;-44
2023/11/08 07:48:01;;;;;;;9.53;7.50;;;;;;;;;;5053312;28;20455;-44
2023/11/08 07:50:28;;;;;;;8.83;7.37;;;;;;;;;;5051809;28;20484;-44
2023/11/08 07:52:55;;;;;;;9.37;7.73;;;;;;;;;;5054054;28;20405;-44
2023/11/08 07:55:21;;;;;;;8.83;7.10;;;;;;;;;;5056220;28;20429;-44
2023/11/08 07:57:48;;;;;;;8.83;7.13;;;;;;;;;;5058014;28;20452;-44
2023/11/08 08:00:15;;;;;;;8.83;7.20;;;;;;;;;;5051530;28;20409;-45
2023/11/08 08:02:42;;;;;;;9.93;7.90;;;;;;;;;;5053175;28;20910;-44
2023/11/08 08:05:09;;;;;;;9.37;8.37;;;;;;;;;;5054509;28;20456;-44
2023/11/08 08:07:35;;;;;;;9.50;8.07;;;;;;;;;;5054333;28;20462;-45
2023/11/08 08:10:01;;;;;;;9.40;8.40;;;;;;;;;;5052709;28;20461;-45
2023/11/08 08:12:27;;;;;;;8.83;7.87;;;;;;;;;;5051128;28;20435;-45
2023/11/08 08:14:53;;;;;;;9.50;8.40;;;;;;;;;;5050697;28;20841;-44
2023/11/08 08:17:19;;;;;;;8.97;8.07;;;;;;;;;;5049044;28;20755;-44
2023/11/08 08:19:47;;;;;;;8.93;7.37;;;;;;;;;;5054627;28;20893;-44
2023/11/08 08:22:14;;;;;;;8.23;7.13;;;;;;;;;;5056288;28;20844;-44
2023/11/08 08:24:40;;;;;;;8.87;7.90;;;;;;;;;;5056036;28;20928;-44
2023/11/08 08:27:07;;;;;;;9.03;7.60;;;;;;;;;;5051707;28;20406;-44
2023/11/08 08:29:34;;;;;;;8.90;8.00;;;;;;;;;;5050859;28;20547;-45
2023/11/08 08:32:00;;;;;;;11.53;9.50;;;;;;;;;;5051539;28;20964;-44
2023/11/08 08:34:26;;;;;;;10.73;9.63;;;;;;;;;;5062876;28;20424;-44
2023/11/08 08:36:52;;;;;;;8.57;7.67;;;;;;;;;;5068208;28;20450;-44
2023/11/08 08:39:20;;;;;;;10.37;9.27;;;;;;;;;;5056215;28;20402;-45
2023/11/08 08:41:46;;;;;;;10.03;9.03;;;;;;;;;;5055250;28;20421;-44
2023/11/08 08:44:13;;;;;;;9.70;8.70;;;;;;;;;;5057525;28;20442;-44
2023/11/08 08:46:39;;;;;;;12.27;11.07;;;;;;;;;;5067646;28;20410;-46
2023/11/08 08:49:05;;;;;;;12.13;10.93;;;;;;;;;;5063301;28;20453;-44
2023/11/08 08:51:32;;;;;;;14.10;12.70;;;;;;;;;;5058680;28;20471;-45
2023/11/08 08:53:58;;;;;;;13.37;12.17;;;;;;;;;;5071733;28;20855;-44
2023/11/08 08:56:25;;;;;;;14.70;13.50;;;;;;;;;;5052892;28;20881;-44
2023/11/08 08:58:51;;;;;;;13.73;12.63;;;;;;;;;;5072071;28;20437;-45
2023/11/08 09:01:20;;;;;;;15.17;14.10;;;;;;;;;;5072798;28;20412;-44
2023/11/08 09:03:46;;;;;;;23.37;21.87;;;;;;;;;;5068108;28;20419;-44
2023/11/08 09:06:13;;;;;;;51.93;46.97;;;;;;;;;;5067685;28;20489;-44
2023/11/08 09:08:39;;;;;;;108.40;61.43;;;;;;;;;;5055799;28;20987;-44
2023/11/08 09:11:06;;;;;;;92.77;61.67;;;;;;;;;;5073976;28;20445;-44
2023/11/08 09:13:32;;;;;;;71.60;59.27;;;;;;;;;;5055255;28;20398;-44
2023/11/08 09:16:01;;;;;;;56.20;51.40;;;;;;;;;;5067680;28;20478;-44
2023/11/08 09:18:33;;;;;;;59.83;54.57;;;;;;;;;;5062803;28;20402;-44
2023/11/08 09:21:01;;;;;;;57.97;53.20;;;;;;;;;;5060524;28;20432;-45
2023/11/08 09:23:31;;;;;;;78.23;67.87;;;;;;;;;;5070221;28;20442;-44
2023/11/08 09:25:57;;;;;;;71.80;65.50;;;;;;;;;;5053891;28;20509;-45
2023/11/08 09:28:23;;;;;;;55.77;51.63;;;;;;;;;;5072842;28;20458;-44
2023/11/08 09:30:51;;;;;;;45.77;42.93;;;;;;;;;;5072779;28;20408;-44
2023/11/08 09:33:17;;;;;;;52.67;49.23;;;;;;;;;;5060509;28;20527;-44
2023/11/08 09:35:43;;;;;;;40.30;37.83;;;;;;;;;;5045464;28;20482;-44
2023/11/08 09:38:12;;;;;;;35.60;33.60;;;;;;;;;;5036754;28;20415;-45
2023/11/08 09:40:38;;;;;;;33.90;32.00;;;;;;;;;;5053163;28;20414;-46
2023/11/08 09:43:05;;;;;;;37.30;35.10;;;;;;;;;;5033625;28;20412;-44
2023/11/08 09:45:32;;;;;;;37.53;35.33;;;;;;;;;;5048248;28;20430;-44
2023/11/08 09:47:59;;;;;;;45.37;42.50;;;;;;;;;;5040861;28;20461;-44
2023/11/08 09:50:25;;;;;;;51.43;47.90;;;;;;;;;;5040996;28;20407;-44
2023/11/08 09:52:51;;;;;;;58.50;54.40;;;;;;;;;;5049466;28;20450;-44
2023/11/08 09:55:19;;;;;;;51.70;48.40;;;;;;;;;;5033032;28;20476;-46
2023/11/08 09:57:46;;;;;;;59.10;55.10;;;;;;;;;;5052978;28;20420;-44
2023/11/08 10:00:13;;;;;;;61.90;57.77;;;;;;;;;;5042957;28;20533;-44
2023/11/08 10:02:40;;;;;;;64.77;60.23;;;;;;;;;;5052208;28;20405;-44
2023/11/08 10:05:06;;;;;;;66.40;61.67;;;;;;;;;;5044503;28;20468;-45
2023/11/08 10:07:37;;;;;;;62.73;58.47;;;;;;;;;;5036583;28;20804;-45
2023/11/08 10:10:03;;;;;;;52.63;49.23;;;;;;;;;;5052080;28;20474;-45
2023/11/08 10:12:32;;;;;;;67.97;62.97;;;;;;;;;;5032846;28;20397;-44
2023/11/08 10:15:02;;;;;;;75.33;69.23;;;;;;;;;;5049104;28;20421;-45
2023/11/08 10:17:59;;;;;;;74.93;69.00;;;;;;;;;;5039256;28;20476;-45
2023/11/08 10:20:29;;;;;;;58.83;54.97;;;;;;;;;;5045750;28;20539;-44
2023/11/08 10:22:55;;;;;;;70.10;65.20;;;;;;;;;;5042655;28;20760;-44
2023/11/08 10:25:26;;;;;;;75.57;69.77;;;;;;;;;;5037997;28;20997;-45
2023/11/08 10:28:05;;;;;;;64.43;60.03;;;;;;;;;;5049937;28;20919;-44
2023/11/08 10:30:39;;;;;;;56.77;53.27;;;;;;;;;;5032588;28;20404;-44
2023/11/08 10:33:12;;;;;;;60.07;56.17;;;;;;;;;;5032403;28;20427;-44
2023/11/08 10:35:39;;;;;;;64.77;60.23;;;;;;;;;;5049976;28;20432;-44
2023/11/08 10:38:05;;;;;;;73.50;68.10;;;;;;;;;;5038136;28;20413;-44
2023/11/08 10:40:32;;;;;;;73.10;67.43;;;;;;;;;;5042074;28;20898;-44
2023/11/08 10:42:58;;;;;;;60.50;56.63;;;;;;;;;;5046268;28;20927;-44
2023/11/08 10:45:25;;;;;;;55.33;51.93;;;;;;;;;;5033623;28;20443;-50
2023/11/08 10:47:52;;;;;;;42.23;39.93;;;;;;;;;;5052022;28;20804;-44
2023/11/08 10:50:20;;;;;;;44.30;41.90;;;;;;;;;;5034138;28;20392;-44
2023/11/08 10:52:46;;;;;;;42.63;40.33;;;;;;;;;;5045860;28;20506;-44
2023/11/08 10:55:12;;;;;;;43.53;41.23;;;;;;;;;;5041637;28;20400;-44
2023/11/08 10:57:41;;;;;;;40.63;38.60;;;;;;;;;;5037036;28;20392;-45
2023/11/08 11:00:08;;;;;;;39.33;37.23;;;;;;;;;;5051395;28;20380;-44
2023/11/08 11:02:48;;;;;;;45.20;42.70;;;;;;;;;;5052079;28;20410;-44
2023/11/08 11:05:18;;;;;;;45.57;43.07;;;;;;;;;;5046835;28;20443;-44
2023/11/08 11:07:44;;;;;;;57.13;53.73;;;;;;;;;;5035165;28;20479;-44
2023/11/08 11:10:11;;;;;;;59.90;56.50;;;;;;;;;;5044169;28;20548;-44
2023/11/08 11:12:51;;;;;;;63.43;59.70;;;;;;;;;;5043195;28;20872;-46
2023/11/08 11:15:21;;;;;;;70.07;65.50;;;;;;;;;;5037410;28;20517;-45
2023/11/08 11:17:55;;;;;;;53.80;50.73;;;;;;;;;;5039525;28;20396;-45
2023/11/08 11:20:22;;;;;;;48.87;46.27;;;;;;;;;;5051707;28;20966;-45
2023/11/08 11:22:48;;;;;;;54.57;51.47;;;;;;;;;;5051681;28;20413;-44
2023/11/08 11:25:36;;;;;;;55.73;52.63;;;;;;;;;;5035503;28;20779;-44
2023/11/08 11:28:02;;;;;;;50.77;47.97;;;;;;;;;;5045425;28;20384;-44
2023/11/08 11:30:31;;;;;;;42.67;40.43;;;;;;;;;;5040822;28;20383;-45
2023/11/08 11:32:59;;;;;;;42.83;40.53;;;;;;;;;;5038427;28;20380;-45
2023/11/08 11:35:32;;;;;;;48.03;45.43;;;;;;;;;;5047101;28;20525;-44
2023/11/08 11:38:07;;;;;;;57.40;54.03;;;;;;;;;;5031371;28;20373;-44
2023/11/08 11:40:48;;;;;;;47.50;44.97;;;;;;;;;;5031477;28;20773;-45
2023/11/08 11:43:39;;;;;;;40.37;38.10;;;;;;;;;;5049781;28;20453;-45
2023/11/08 11:46:07;;;;;;;35.50;33.70;;;;;;;;;;5033287;28;20801;-45
2023/11/08 11:48:34;;;;;;;36.03;34.07;;;;;;;;;;5046071;28;20493;-44
2023/11/08 11:51:01;;;;;;;37.90;35.80;;;;;;;;;;5040686;28;20438;-44
2023/11/08 11:53:31;;;;;;;40.87;38.50;;;;;;;;;;5037687;28;20415;-44
2023/11/08 11:56:07;;;;;;;34.43;32.63;;;;;;;;;;5048115;28;20427;-44
2023/11/08 11:58:35;;;;;;;41.90;39.60;;;;;;;;;;5031535;28;20435;-45
2023/11/08 12:01:01;;;;;;;37.20;35.17;;;;;;;;;;5051200;28;20418;-44
2023/11/08 12:03:27;;;;;;;42.47;39.97;;;;;;;;;;5050516;28;20417;-44
2023/11/08 12:05:57;;;;;;;36.20;34.30;;;;;;;;;;5038892;28;20406;-45
2023/11/08 12:08:27;;;;;;;32.00;30.30;;;;;;;;;;5041855;28;20487;-45
2023/11/08 12:11:13;;;;;;;31.03;29.33;;;;;;;;;;5049734;28;20414;-44
2023/11/08 12:13:53;;;;;;;25.10;23.70;;;;;;;;;;5038688;28;20430;-44
2023/11/08 12:16:19;;;;;;;26.60;25.00;;;;;;;;;;5053381;28;21151;-44
2023/11/08 12:18:49;;;;;;;24.57;23.07;;;;;;;;;;5035033;28;20895;-45
2023/11/08 12:21:16;;;;;;;23.60;22.20;;;;;;;;;;5052929;28;20417;-44
2023/11/08 12:23:43;;;;;;;23.97;22.53;;;;;;;;;;5040464;28;20384;-45
2023/11/08 12:26:09;;;;;;;22.03;20.60;;;;;;;;;;5044355;28;20454;-44
2023/11/08 12:28:35;;;;;;;21.70;20.37;;;;;;;;;;5046979;28;20476;-44
2023/11/08 12:31:10;;;;;;;23.73;22.13;;;;;;;;;;5051150;28;20408;-44
2023/11/08 12:33:37;;;;;;;22.47;20.97;;;;;;;;;;5033054;28;20785;-44
2023/11/08 12:36:05;;;;;;;22.77;21.27;;;;;;;;;;5053361;28;20428;-44
2023/11/08 12:38:36;;;;;;;23.60;22.10;;;;;;;;;;5038695;28;20415;-43
2023/11/08 12:41:02;;;;;;;24.77;23.10;;;;;;;;;;5044540;28;20880;-44
2023/11/08 12:43:28;;;;;;;26.03;24.13;;;;;;;;;;5046196;28;20455;-44
2023/11/08 12:46:21;;;;;;;22.60;21.17;;;;;;;;;;5037905;28;20488;-44
2023/11/08 12:48:55;;;;;;;20.83;19.50;;;;;;;;;;5050028;28;20575;-44
2023/11/08 12:51:29;;;;;;;22.70;21.27;;;;;;;;;;5034449;28;20467;-44
2023/11/08 12:53:55;;;;;;;19.67;18.37;;;;;;;;;;5054152;28;20407;-44
2023/11/08 12:56:22;;;;;;;21.80;20.50;;;;;;;;;;5036874;28;20464;-44
2023/11/08 12:58:49;;;;;;;23.63;22.20;;;;;;;;;;5047288;28;20840;-44
2023/11/08 13:01:19;;;;;;;19.87;18.57;;;;;;;;;;5053554;28;20421;-44
2023/11/08 13:03:46;;;;;;;20.40;19.10;;;;;;;;;;5048099;28;20475;-44
2023/11/08 13:06:12;;;;;;;20.97;19.63;;;;;;;;;;5035406;28;20497;-44
2023/11/08 13:08:41;;;;;;;18.87;17.67;;;;;;;;;;5054081;28;20461;-44
2023/11/08 13:11:07;;;;;;;19.60;18.30;;;;;;;;;;5035848;28;20407;-44
2023/11/08 13:13:35;;;;;;;20.33;18.93;;;;;;;;;;5047590;28;20893;-44
2023/11/08 13:16:02;;;;;;;19.43;18.17;;;;;;;;;;5043600;28;20431;-44
2023/11/08 13:18:29;;;;;;;21.67;20.23;;;;;;;;;;5039831;28;20436;-45
2023/11/08 13:20:55;;;;;;;21.03;19.67;;;;;;;;;;5050717;28;20413;-44
2023/11/08 13:23:22;;;;;;;21.13;19.63;;;;;;;;;;5033750;28;20415;-44
2023/11/08 13:25:49;;;;;;;20.20;18.90;;;;;;;;;;5051778;28;20433;-44
2023/11/08 13:28:17;;;;;;;19.47;18.27;;;;;;;;;;5039293;28;20973;-44
2023/11/08 13:30:43;;;;;;;19.87;18.60;;;;;;;;;;5043827;28;20405;-44
2023/11/08 13:33:09;;;;;;;19.90;18.57;;;;;;;;;;5047111;28;20414;-44
2023/11/08 13:35:35;;;;;;;20.53;19.17;;;;;;;;;;5035255;28;20417;-44
2023/11/08 13:38:07;;;;;;;18.00;16.80;;;;;;;;;;5053471;28;20405;-44
2023/11/08 13:40:33;;;;;;;17.73;16.53;;;;;;;;;;5042849;28;20454;-44
2023/11/08 13:42:59;;;;;;;19.00;17.60;;;;;;;;;;5038399;28;20414;-45
2023/11/08 13:45:25;;;;;;;21.30;19.90;;;;;;;;;;5043488;28;20770;-44
2023/11/08 13:47:53;;;;;;;22.80;21.40;;;;;;;;;;5046898;28;20511;-44
2023/11/08 13:50:19;;;;;;;22.20;20.90;;;;;;;;;;5035753;28;20418;-45
2023/11/08 13:52:45;;;;;;;21.10;19.70;;;;;;;;;;5053242;28;20912;-44
2023/11/08 13:55:13;;;;;;;20.37;19.17;;;;;;;;;;5034019;28;20499;-44
2023/11/08 13:57:39;;;;;;;22.17;20.70;;;;;;;;;;5047584;28;20475;-44
2023/11/08 14:00:06;;;;;;;22.57;21.07;;;;;;;;;;5047177;28;20401;-44
2023/11/08 14:02:34;;;;;;;21.83;20.43;;;;;;;;;;5052401;28;20807;-45
2023/11/08 14:05:03;;;;;;;21.57;20.17;;;;;;;;;;5049758;28;20646;-44
2023/11/08 14:07:29;;;;;;;22.83;21.43;;;;;;;;;;5032878;28;20905;-45
2023/11/08 14:09:55;;;;;;;21.63;20.23;;;;;;;;;;5051843;28;20493;-45
2023/11/08 14:12:21;;;;;;;19.67;18.40;;;;;;;;;;5037708;28;21064;-44
2023/11/08 14:14:48;;;;;;;18.90;17.70;;;;;;;;;;5043086;28;20429;-44
2023/11/08 14:17:19;;;;;;;21.10;19.70;;;;;;;;;;5045585;28;20894;-44
2023/11/08 14:19:46;;;;;;;20.60;19.30;;;;;;;;;;5036195;28;20511;-43
2023/11/08 14:22:13;;;;;;;20.07;18.77;;;;;;;;;;5052603;28;20420;-44
2023/11/08 14:24:38;;;;;;;19.40;18.10;;;;;;;;;;5032597;28;20810;-45
2023/11/08 14:27:05;;;;;;;19.90;18.60;;;;;;;;;;5047798;28;20420;-45
2023/11/08 14:29:31;;;;;;;19.70;18.40;;;;;;;;;;5040920;28;20464;-45
2023/11/08 14:34:26;;;;;;;17.80;16.60;;;;;;;;;;5002121;28;20510;-43